createdAt,value
2022-09-05T00:00:05.071Z,24.51
2022-09-05T00:00:15.063Z,24.53
2022-09-05T00:00:25.177Z,24.53
2022-09-05T00:00:35.309Z,24.54
2022-09-05T00:00:45.308Z,24.54
2022-09-05T00:00:55.309Z,24.55
2022-09-05T00:01:05.420Z,24.55
2022-09-05T00:01:15.669Z,24.56
2022-09-05T00:01:27.271Z,24.52
2022-09-05T00:01:35.858Z,24.52
2022-09-05T00:01:45.857Z,24.53
2022-09-05T00:01:55.973Z,24.54
2022-09-05T00:02:06.088Z,24.55
2022-09-05T00:02:16.206Z,24.55
2022-09-05T00:02:26.438Z,24.56
2022-09-05T00:02:36.509Z,24.56
2022-09-05T00:02:49.169Z,24.53
2022-09-05T00:02:56.629Z,24.52
2022-09-05T00:03:06.791Z,24.53
2022-09-05T00:03:16.891Z,24.53
2022-09-05T00:03:27.163Z,24.52
2022-09-05T00:03:36.991Z,24.52
2022-09-05T00:03:47.161Z,24.52
2022-09-05T00:03:57.281Z,24.52
2022-09-05T00:04:15.525Z,24.46
2022-09-05T00:04:25.062Z,24.41
2022-09-05T00:04:27.294Z,24.37
2022-09-05T00:04:37.291Z,24.38
2022-09-05T00:04:47.325Z,24.39
2022-09-05T00:04:57.443Z,24.40
2022-09-05T00:05:07.557Z,24.41
2022-09-05T00:05:17.685Z,24.41
2022-09-05T00:05:27.790Z,24.41
2022-09-05T00:05:48.332Z,24.42
2022-09-05T00:06:02.030Z,24.37
2022-09-05T00:06:02.360Z,24.34
2022-09-05T00:06:08.038Z,24.32
2022-09-05T00:06:18.153Z,24.37
2022-09-05T00:06:28.274Z,24.40
2022-09-05T00:06:38.394Z,24.42
2022-09-05T00:06:48.387Z,24.43
2022-09-05T00:06:58.514Z,24.45
2022-09-05T00:07:08.636Z,24.46
2022-09-05T00:07:31.152Z,24.46
2022-09-05T00:07:43.368Z,24.41
2022-09-05T00:07:58.875Z,24.40
2022-09-05T00:07:58.917Z,24.37
2022-09-05T00:08:00.457Z,24.36
2022-09-05T00:08:09.171Z,24.39
2022-09-05T00:08:19.296Z,24.42
2022-09-05T00:08:29.411Z,24.43
2022-09-05T00:08:39.540Z,24.46
2022-09-05T00:08:49.656Z,24.46
2022-09-05T00:08:59.776Z,24.47
2022-09-05T00:09:09.769Z,24.48
2022-09-05T00:09:19.887Z,24.48
2022-09-05T00:09:30.459Z,24.49
2022-09-05T00:09:40.128Z,24.49
2022-09-05T00:09:50.117Z,24.49
2022-09-05T00:10:00.153Z,24.49
2022-09-05T00:10:10.282Z,24.49
2022-09-05T00:10:20.682Z,24.49
2022-09-05T00:10:36.010Z,24.51
2022-09-05T00:11:07.195Z,24.45
2022-09-05T00:11:40.349Z,24.34
2022-09-05T00:11:40.968Z,24.40
2022-09-05T00:11:42.066Z,24.36
2022-09-05T00:11:42.165Z,24.42
2022-09-05T00:11:43.215Z,24.38
2022-09-05T00:11:43.935Z,24.31
2022-09-05T00:11:51.000Z,24.31
2022-09-05T00:12:01.117Z,24.34
2022-09-05T00:12:11.232Z,24.36
2022-09-05T00:12:21.353Z,24.36
2022-09-05T00:12:31.363Z,24.37
2022-09-05T00:12:41.365Z,24.37
2022-09-05T00:12:51.490Z,24.39
2022-09-05T00:13:07.676Z,24.35
2022-09-05T00:13:11.739Z,24.31
2022-09-05T00:13:21.856Z,24.35
2022-09-05T00:13:31.986Z,24.36
2022-09-05T00:13:41.976Z,24.37
2022-09-05T00:13:52.086Z,24.38
2022-09-05T00:14:02.204Z,24.38
2022-09-05T00:14:12.322Z,24.39
2022-09-05T00:14:34.302Z,24.39
2022-09-05T00:14:53.690Z,24.34
2022-09-05T00:15:16.423Z,24.24
2022-09-05T00:15:16.935Z,24.26
2022-09-05T00:15:17.219Z,24.28
2022-09-05T00:15:17.756Z,24.30
2022-09-05T00:15:22.816Z,24.22
2022-09-05T00:15:32.930Z,24.27
2022-09-05T00:15:43.108Z,24.29
2022-09-05T00:15:53.137Z,24.31
2022-09-05T00:16:03.231Z,24.32
2022-09-05T00:16:13.305Z,24.35
2022-09-05T00:16:23.379Z,24.35
2022-09-05T00:16:33.378Z,24.29
2022-09-05T00:16:43.402Z,24.33
2022-09-05T00:16:53.519Z,24.35
2022-09-05T00:17:03.634Z,24.36
2022-09-05T00:17:13.749Z,24.38
2022-09-05T00:17:23.871Z,24.39
2022-09-05T00:17:50.125Z,24.32
2022-09-05T00:17:58.864Z,24.36
2022-09-05T00:20:53.819Z,24.27
2022-09-05T00:21:22.751Z,24.30
2022-09-05T00:22:51.272Z,24.23
2022-09-05T00:22:57.758Z,24.18
2022-09-05T00:23:00.510Z,24.25
2022-09-05T00:23:45.533Z,24.25
2022-09-05T00:24:17.673Z,24.22
2022-09-05T00:24:19.194Z,24.09
2022-09-05T00:24:19.194Z,24.16
2022-09-05T00:24:19.596Z,24.11
2022-09-05T00:24:20.227Z,24.13
2022-09-05T00:24:20.307Z,24.08
2022-09-05T00:24:20.511Z,24.21
2022-09-05T00:24:22.579Z,24.07
2022-09-05T00:24:22.579Z,24.13
2022-09-05T00:24:22.750Z,24.21
2022-09-05T00:24:23.091Z,24.07
2022-09-05T00:24:24.866Z,24.09
2022-09-05T00:24:25.303Z,24.17
2022-09-05T00:24:25.378Z,24.09
2022-09-05T00:24:25.585Z,24.07
2022-09-05T00:24:26.334Z,24.20
2022-09-05T00:24:27.138Z,24.07
2022-09-05T00:24:27.282Z,24.08
2022-09-05T00:24:27.421Z,24.08
2022-09-05T00:24:27.750Z,24.14
2022-09-05T00:24:29.051Z,24.08
2022-09-05T00:24:29.216Z,24.09
2022-09-05T00:24:29.485Z,24.08
2022-09-05T00:24:30.902Z,24.07
2022-09-05T00:24:31.787Z,24.06
2022-09-05T00:24:32.146Z,24.09
2022-09-05T00:24:32.398Z,24.07
2022-09-05T00:24:32.400Z,24.08
2022-09-05T00:24:33.160Z,24.08
2022-09-05T00:24:35.668Z,24.07
2022-09-05T00:24:36.516Z,24.09
2022-09-05T00:24:37.402Z,24.08
2022-09-05T00:24:37.404Z,24.08
2022-09-05T00:24:45.726Z,24.04
2022-09-05T00:24:50.099Z,24.04
2022-09-05T00:25:14.019Z,24.04
2022-09-05T00:25:21.402Z,24.04
2022-09-05T00:25:30.448Z,24.04
2022-09-05T00:25:31.121Z,24.04
2022-09-05T00:25:31.647Z,24.04
2022-09-05T00:25:38.675Z,24.03
2022-09-05T00:25:48.553Z,24.08
2022-09-05T00:25:58.669Z,24.11
2022-09-05T00:26:08.785Z,24.13
2022-09-05T00:26:18.915Z,24.15
2022-09-05T00:26:28.913Z,24.17
2022-09-05T00:26:39.033Z,24.19
2022-09-05T00:26:50.586Z,24.14
2022-09-05T00:26:59.077Z,24.17
2022-09-05T00:27:09.192Z,24.21
2022-09-05T00:27:19.310Z,24.23
2022-09-05T00:27:29.423Z,24.24
2022-09-05T00:27:39.540Z,24.25
2022-09-05T00:27:49.658Z,24.28
2022-09-05T00:27:59.777Z,24.28
2022-09-05T00:28:25.498Z,24.28
2022-09-05T00:28:26.515Z,24.24
2022-09-05T00:28:29.982Z,24.21
2022-09-05T00:28:40.097Z,24.25
2022-09-05T00:28:50.214Z,24.27
2022-09-05T00:29:00.332Z,24.29
2022-09-05T00:29:10.455Z,24.29
2022-09-05T00:29:46.493Z,24.20
2022-09-05T00:30:29.290Z,24.24
2022-09-05T00:30:47.320Z,24.13
2022-09-05T00:31:05.306Z,24.17
2022-09-05T00:31:05.950Z,24.11
2022-09-05T00:31:06.935Z,24.09
2022-09-05T00:31:07.460Z,24.15
2022-09-05T00:31:07.465Z,24.09
2022-09-05T00:31:50.833Z,24.09
2022-09-05T00:31:51.628Z,24.08
2022-09-05T00:31:51.913Z,24.08
2022-09-05T00:31:53.910Z,24.07
2022-09-05T00:31:54.135Z,24.08
2022-09-05T00:31:54.175Z,24.07
2022-09-05T00:31:54.344Z,24.08
2022-09-05T00:31:56.844Z,24.07
2022-09-05T00:32:02.293Z,24.06
2022-09-05T00:32:12.380Z,24.10
2022-09-05T00:32:22.473Z,24.15
2022-09-05T00:32:32.588Z,24.16
2022-09-05T00:32:42.590Z,24.18
2022-09-05T00:32:52.542Z,24.21
2022-09-05T00:33:02.525Z,24.23
2022-09-05T00:33:16.909Z,24.20
2022-09-05T00:33:22.773Z,24.18
2022-09-05T00:33:32.889Z,24.23
2022-09-05T00:33:43.015Z,24.26
2022-09-05T00:33:53.122Z,24.30
2022-09-05T00:34:03.235Z,24.31
2022-09-05T00:34:13.374Z,24.34
2022-09-05T00:34:23.359Z,24.36
2022-09-05T00:34:39.783Z,24.37
2022-09-05T00:34:48.060Z,24.33
2022-09-05T00:34:53.652Z,24.32
2022-09-05T00:35:04.031Z,24.37
2022-09-05T00:35:14.125Z,24.40
2022-09-05T00:35:25.982Z,24.42
2022-09-05T00:35:34.206Z,24.42
2022-09-05T00:35:44.322Z,24.45
2022-09-05T00:35:54.447Z,24.47
2022-09-05T00:36:04.479Z,24.48
2022-09-05T00:36:14.456Z,24.50
2022-09-05T00:36:24.573Z,24.51
2022-09-05T00:36:34.690Z,24.52
2022-09-05T00:36:44.809Z,24.53
2022-09-05T00:36:54.958Z,24.55
2022-09-05T00:37:04.939Z,24.56
2022-09-05T00:37:15.055Z,24.57
2022-09-05T00:37:25.137Z,24.56
2022-09-05T00:37:35.132Z,24.58
2022-09-05T00:37:45.250Z,24.59
2022-09-05T00:37:55.363Z,24.60
2022-09-05T00:38:05.480Z,24.61
2022-09-05T00:38:15.605Z,24.62
2022-09-05T00:38:28.494Z,24.62
2022-09-05T00:38:37.221Z,24.58
2022-09-05T00:38:45.868Z,24.60
2022-09-05T00:38:56.111Z,24.62
2022-09-05T00:39:06.229Z,24.63
2022-09-05T00:39:16.342Z,24.65
2022-09-05T00:39:26.546Z,24.65
2022-09-05T00:39:36.598Z,24.66
2022-09-05T00:39:47.742Z,24.67
2022-09-05T00:40:05.560Z,24.61
2022-09-05T00:40:17.600Z,24.57
2022-09-05T00:40:18.528Z,24.59
2022-09-05T00:40:27.064Z,24.59
2022-09-05T00:40:37.092Z,24.62
2022-09-05T00:40:47.078Z,24.64
2022-09-05T00:40:57.191Z,24.65
2022-09-05T00:41:07.306Z,24.66
2022-09-05T00:41:17.423Z,24.68
2022-09-05T00:41:27.539Z,24.69
2022-09-05T00:41:37.605Z,24.68
2022-09-05T00:41:47.601Z,24.68
2022-09-05T00:41:57.606Z,24.69
2022-09-05T00:42:07.726Z,24.70
2022-09-05T00:42:17.850Z,24.70
2022-09-05T00:42:27.977Z,24.71
2022-09-05T00:42:37.974Z,24.72
2022-09-05T00:42:48.089Z,24.72
2022-09-05T00:42:58.207Z,24.72
2022-09-05T00:43:08.324Z,24.73
2022-09-05T00:43:18.448Z,24.74
2022-09-05T00:43:28.560Z,24.74
2022-09-05T00:43:38.692Z,24.75
2022-09-05T00:43:48.692Z,24.75
2022-09-05T00:43:58.698Z,24.76
2022-09-05T00:44:08.810Z,24.76
2022-09-05T00:44:18.925Z,24.76
2022-09-05T00:44:29.046Z,24.77
2022-09-05T00:44:39.052Z,24.78
2022-09-05T00:44:49.047Z,24.78
2022-09-05T00:44:59.424Z,24.78
2022-09-05T00:45:16.961Z,24.78
2022-09-05T00:45:20.060Z,24.73
2022-09-05T00:45:29.675Z,24.75
2022-09-05T00:45:39.677Z,24.77
2022-09-05T00:45:49.792Z,24.77
2022-09-05T00:45:59.952Z,24.77
2022-09-05T00:46:10.064Z,24.78
2022-09-05T00:46:20.161Z,24.79
2022-09-05T00:46:32.097Z,24.79
2022-09-05T00:46:40.311Z,24.76
2022-09-05T00:46:50.385Z,24.78
2022-09-05T00:47:00.373Z,24.78
2022-09-05T00:47:10.493Z,24.79
2022-09-05T00:47:20.601Z,24.79
2022-09-05T00:47:30.606Z,24.80
2022-09-05T00:47:40.720Z,24.79
2022-09-05T00:47:50.847Z,24.75
2022-09-05T00:48:00.960Z,24.77
2022-09-05T00:48:11.087Z,24.78
2022-09-05T00:48:21.083Z,24.78
2022-09-05T00:48:31.195Z,24.79
2022-09-05T00:48:41.321Z,24.80
2022-09-05T00:48:51.433Z,24.80
2022-09-05T00:49:01.566Z,24.80
2022-09-05T00:49:11.557Z,24.80
2022-09-05T00:49:21.673Z,24.81
2022-09-05T00:49:31.790Z,24.81
2022-09-05T00:49:41.908Z,24.81
2022-09-05T00:49:52.028Z,24.81
2022-09-05T00:50:02.040Z,24.81
2022-09-05T00:50:12.026Z,24.82
2022-09-05T00:50:22.038Z,24.82
2022-09-05T00:50:32.159Z,24.81
2022-09-05T00:50:42.403Z,24.82
2022-09-05T00:50:52.526Z,24.82
2022-09-05T00:51:02.522Z,24.82
2022-09-05T00:51:12.778Z,24.82
2022-09-05T00:51:29.195Z,24.83
2022-09-05T00:51:34.787Z,24.77
2022-09-05T00:51:43.014Z,24.77
2022-09-05T00:51:53.127Z,24.79
2022-09-05T00:52:03.262Z,24.80
2022-09-05T00:52:13.370Z,24.81
2022-09-05T00:52:23.484Z,24.81
2022-09-05T00:52:33.487Z,24.82
2022-09-05T00:52:43.601Z,24.82
2022-09-05T00:53:06.490Z,24.78
2022-09-05T00:53:06.710Z,24.74
2022-09-05T00:53:13.723Z,24.74
2022-09-05T00:53:23.894Z,24.76
2022-09-05T00:53:33.889Z,24.78
2022-09-05T00:53:44.133Z,24.78
2022-09-05T00:53:54.262Z,24.79
2022-09-05T00:54:04.254Z,24.80
2022-09-05T00:54:15.732Z,24.81
2022-09-05T00:54:26.344Z,24.81
2022-09-05T00:54:41.123Z,24.75
2022-09-05T00:54:44.662Z,24.73
2022-09-05T00:54:54.785Z,24.75
2022-09-05T00:55:04.789Z,24.78
2022-09-05T00:55:14.786Z,24.79
2022-09-05T00:55:24.901Z,24.79
2022-09-05T00:55:35.020Z,24.81
2022-09-05T00:55:45.135Z,24.81
2022-09-05T00:55:58.836Z,24.82
2022-09-05T00:56:05.630Z,24.79
2022-09-05T00:56:15.746Z,24.80
2022-09-05T00:56:25.862Z,24.81
2022-09-05T00:56:35.983Z,24.82
2022-09-05T00:56:46.101Z,24.82
2022-09-05T00:56:56.215Z,24.84
2022-09-05T00:57:06.333Z,24.84
2022-09-05T00:57:17.938Z,24.85
2022-09-05T00:57:26.492Z,24.84
2022-09-05T00:57:36.864Z,24.84
2022-09-05T00:57:46.981Z,24.85
2022-09-05T00:57:57.104Z,24.85
2022-09-05T00:58:07.230Z,24.86
2022-09-05T00:58:17.344Z,24.87
2022-09-05T00:58:27.347Z,24.87
2022-09-05T00:58:37.418Z,24.81
2022-09-05T00:58:47.408Z,24.84
2022-09-05T00:58:57.528Z,24.85
2022-09-05T00:59:07.636Z,24.86
2022-09-05T00:59:17.757Z,24.86
2022-09-05T00:59:27.751Z,24.86
2022-09-05T00:59:37.874Z,24.87
2022-09-05T00:59:52.050Z,24.88
2022-09-05T00:59:59.056Z,24.82
2022-09-05T01:00:08.143Z,24.84
2022-09-05T01:00:18.597Z,24.85
2022-09-05T01:00:28.357Z,24.86
2022-09-05T01:00:38.471Z,24.86
2022-09-05T01:00:48.596Z,24.87
2022-09-05T01:00:58.718Z,24.87
2022-09-05T01:01:09.651Z,24.87
2022-09-05T01:01:20.831Z,24.81
2022-09-05T01:01:28.996Z,24.82
2022-09-05T01:01:39.103Z,24.83
2022-09-05T01:01:49.008Z,24.85
2022-09-05T01:01:59.207Z,24.85
2022-09-05T01:02:09.220Z,24.86
2022-09-05T01:02:19.176Z,24.86
2022-09-05T01:02:29.379Z,24.87
2022-09-05T01:02:48.433Z,24.87
2022-09-05T01:02:51.899Z,24.81
2022-09-05T01:02:59.350Z,24.80
2022-09-05T01:03:09.403Z,24.82
2022-09-05T01:03:19.416Z,24.83
2022-09-05T01:03:29.419Z,24.85
2022-09-05T01:03:39.535Z,24.86
2022-09-05T01:03:49.649Z,24.85
2022-09-05T01:03:59.767Z,24.86
2022-09-05T01:04:09.897Z,24.82
2022-09-05T01:04:19.894Z,24.84
2022-09-05T01:04:30.010Z,24.86
2022-09-05T01:04:40.006Z,24.87
2022-09-05T01:04:50.123Z,24.87
2022-09-05T01:05:00.244Z,24.88
2022-09-05T01:05:10.361Z,24.88
2022-09-05T01:05:20.358Z,24.89
2022-09-05T01:05:30.476Z,24.89
2022-09-05T01:05:40.588Z,24.90
2022-09-05T01:05:50.703Z,24.91
2022-09-05T01:06:00.705Z,24.90
2022-09-05T01:06:10.828Z,24.90
2022-09-05T01:06:20.955Z,24.91
2022-09-05T01:06:31.068Z,24.92
2022-09-05T01:06:41.063Z,24.92
2022-09-05T01:06:51.177Z,24.92
2022-09-05T01:07:01.316Z,24.92
2022-09-05T01:07:11.310Z,24.93
2022-09-05T01:07:21.424Z,24.93
2022-09-05T01:07:31.681Z,24.93
2022-09-05T01:07:46.517Z,24.93
2022-09-05T01:07:51.919Z,24.88
2022-09-05T01:08:02.036Z,24.90
2022-09-05T01:08:12.155Z,24.90
2022-09-05T01:08:22.152Z,24.91
2022-09-05T01:08:32.284Z,24.92
2022-09-05T01:08:42.291Z,24.92
2022-09-05T01:08:52.413Z,24.93
2022-09-05T01:09:07.511Z,24.93
2022-09-05T01:09:12.541Z,24.86
2022-09-05T01:09:22.533Z,24.89
2022-09-05T01:09:32.654Z,24.90
2022-09-05T01:09:42.769Z,24.91
2022-09-05T01:09:52.886Z,24.92
2022-09-05T01:10:02.896Z,24.92
2022-09-05T01:10:13.017Z,24.93
2022-09-05T01:10:23.617Z,24.93
2022-09-05T01:10:33.437Z,24.93
2022-09-05T01:10:43.434Z,24.93
2022-09-05T01:10:53.556Z,24.94
2022-09-05T01:11:03.804Z,24.94
2022-09-05T01:11:13.930Z,24.94
2022-09-05T01:11:24.042Z,24.94
2022-09-05T01:11:34.167Z,24.94
2022-09-05T01:11:44.278Z,24.95
2022-09-05T01:11:54.404Z,24.95
2022-09-05T01:12:04.530Z,24.95
2022-09-05T01:12:14.525Z,24.95
2022-09-05T01:12:24.638Z,24.95
2022-09-05T01:12:34.891Z,24.96
2022-09-05T01:12:50.145Z,24.96
2022-09-05T01:12:55.133Z,24.91
2022-09-05T01:13:05.137Z,24.92
2022-09-05T01:13:15.250Z,24.94
2022-09-05T01:13:25.509Z,24.94
2022-09-05T01:13:35.466Z,24.94
2022-09-05T01:13:45.470Z,24.95
2022-09-05T01:13:55.585Z,24.94
2022-09-05T01:14:07.806Z,24.95
2022-09-05T01:14:15.587Z,24.89
2022-09-05T01:14:25.702Z,24.92
2022-09-05T01:14:35.824Z,24.93
2022-09-05T01:14:45.943Z,24.93
2022-09-05T01:14:56.063Z,24.94
2022-09-05T01:15:06.193Z,24.95
2022-09-05T01:15:16.301Z,24.95
2022-09-05T01:15:30.048Z,24.95
2022-09-05T01:15:36.587Z,24.89
2022-09-05T01:15:46.644Z,24.92
2022-09-05T01:15:56.699Z,24.93
2022-09-05T01:16:06.821Z,24.94
2022-09-05T01:16:16.920Z,24.93
2022-09-05T01:16:26.896Z,24.94
2022-09-05T01:16:36.912Z,24.95
2022-09-05T01:16:47.026Z,24.95
2022-09-05T01:16:57.153Z,24.96
2022-09-05T01:17:07.143Z,24.96
2022-09-05T01:17:17.264Z,24.97
2022-09-05T01:17:27.512Z,24.97
2022-09-05T01:17:37.618Z,24.97
2022-09-05T01:17:48.447Z,24.97
2022-09-05T01:18:00.416Z,24.97
2022-09-05T01:18:07.734Z,24.94
2022-09-05T01:19:36.444Z,24.54
2022-09-05T01:19:46.562Z,24.61
2022-09-05T01:19:56.683Z,24.67
2022-09-05T01:20:18.546Z,24.65
2022-09-05T01:20:19.591Z,24.64
2022-09-05T01:20:26.862Z,24.68
2022-09-05T01:20:38.388Z,24.70
2022-09-05T01:20:46.956Z,24.72
2022-09-05T01:20:57.074Z,24.74
2022-09-05T01:21:07.073Z,24.77
2022-09-05T01:21:17.189Z,24.79
2022-09-05T01:21:27.302Z,24.80
2022-09-05T01:21:37.305Z,24.82
2022-09-05T01:21:48.146Z,24.83
2022-09-05T01:21:57.529Z,24.84
2022-09-05T01:22:07.648Z,24.86
2022-09-05T01:22:17.785Z,24.87
2022-09-05T01:22:27.777Z,24.88
2022-09-05T01:22:38.023Z,24.89
2022-09-05T01:22:48.141Z,24.90
2022-09-05T01:22:58.255Z,24.91
2022-09-05T01:23:08.923Z,24.90
2022-09-05T01:23:18.324Z,24.91
2022-09-05T01:23:28.327Z,24.92
2022-09-05T01:23:38.449Z,24.93
2022-09-05T01:23:48.566Z,24.93
2022-09-05T01:23:58.685Z,24.94
2022-09-05T01:24:08.800Z,24.94
2022-09-05T01:24:18.914Z,24.95
2022-09-05T01:24:29.038Z,24.89
2022-09-05T01:24:39.170Z,24.92
2022-09-05T01:24:49.166Z,24.94
2022-09-05T01:24:59.282Z,24.95
2022-09-05T01:25:09.282Z,24.96
2022-09-05T01:25:19.284Z,24.96
2022-09-05T01:25:29.404Z,24.97
2022-09-05T01:25:39.516Z,24.97
2022-09-05T01:25:54.772Z,24.92
2022-09-05T01:25:59.685Z,24.88
2022-09-05T01:26:09.682Z,24.92
2022-09-05T01:26:19.806Z,24.95
2022-09-05T01:26:29.919Z,24.95
2022-09-05T01:26:40.035Z,24.96
2022-09-05T01:26:50.044Z,24.96
2022-09-05T01:27:00.159Z,24.98
2022-09-05T01:27:10.155Z,24.99
2022-09-05T01:27:20.259Z,24.96
2022-09-05T01:27:33.820Z,24.95
2022-09-05T01:28:32.973Z,24.91
2022-09-05T01:29:12.836Z,24.86
2022-09-05T01:29:15.088Z,24.80
2022-09-05T01:29:15.862Z,24.88
2022-09-05T01:29:16.408Z,24.83
2022-09-05T01:29:16.715Z,24.81
2022-09-05T01:29:16.758Z,24.78
2022-09-05T01:29:17.313Z,24.82
2022-09-05T01:29:17.658Z,24.77
2022-09-05T01:29:17.756Z,24.79
2022-09-05T01:29:21.093Z,24.76
2022-09-05T01:29:31.208Z,24.80
2022-09-05T01:29:41.338Z,24.84
2022-09-05T01:29:51.324Z,24.86
2022-09-05T01:30:01.439Z,24.88
2022-09-05T01:30:11.562Z,24.89
2022-09-05T01:30:21.670Z,24.90
2022-09-05T01:30:33.177Z,24.92
2022-09-05T01:30:41.911Z,24.91
2022-09-05T01:30:52.100Z,24.93
2022-09-05T01:31:02.183Z,24.94
2022-09-05T01:31:12.216Z,24.94
2022-09-05T01:31:22.541Z,24.95
2022-09-05T01:31:32.661Z,24.96
2022-09-05T01:31:42.557Z,24.96
2022-09-05T01:31:52.551Z,24.97
2022-09-05T01:32:02.673Z,24.97
2022-09-05T01:32:12.786Z,24.99
2022-09-05T01:32:22.914Z,24.99
2022-09-05T01:32:32.929Z,25.00
2022-09-05T01:32:43.046Z,25.00
2022-09-05T01:32:53.166Z,25.01
2022-09-05T01:33:05.933Z,24.94
2022-09-05T01:33:13.279Z,24.94
2022-09-05T01:33:23.464Z,24.96
2022-09-05T01:33:33.459Z,24.97
2022-09-05T01:33:43.581Z,24.99
2022-09-05T01:33:53.581Z,25.00
2022-09-05T01:34:03.691Z,25.00
2022-09-05T01:34:13.809Z,25.00
2022-09-05T01:34:31.843Z,25.00
2022-09-05T01:34:33.955Z,24.95
2022-09-05T01:34:44.068Z,24.98
2022-09-05T01:34:54.203Z,24.99
2022-09-05T01:35:04.197Z,25.00
2022-09-05T01:35:14.317Z,25.00
2022-09-05T01:35:24.310Z,25.01
2022-09-05T01:35:34.423Z,25.02
2022-09-05T01:35:56.184Z,24.96
2022-09-05T01:35:57.794Z,25.02
2022-09-05T01:36:04.727Z,24.93
2022-09-05T01:36:14.690Z,24.96
2022-09-05T01:36:24.809Z,24.98
2022-09-05T01:36:34.925Z,25.00
2022-09-05T01:36:45.042Z,25.00
2022-09-05T01:36:55.161Z,25.01
2022-09-05T01:37:05.275Z,25.01
2022-09-05T01:37:24.693Z,25.01
2022-09-05T01:37:32.824Z,24.95
2022-09-05T01:37:35.636Z,24.93
2022-09-05T01:37:45.754Z,24.96
2022-09-05T01:37:55.751Z,24.98
2022-09-05T01:38:05.866Z,24.99
2022-09-05T01:38:15.863Z,25.00
2022-09-05T01:38:25.983Z,25.01
2022-09-05T01:38:35.982Z,25.01
2022-09-05T01:39:18.527Z,25.01
2022-09-05T01:40:01.778Z,24.93
2022-09-05T01:40:04.359Z,24.90
2022-09-05T01:40:11.008Z,24.84
2022-09-05T01:40:12.150Z,24.85
2022-09-05T01:40:12.499Z,24.95
2022-09-05T01:40:15.178Z,24.83
2022-09-05T01:40:15.435Z,24.89
2022-09-05T01:40:15.475Z,24.87
2022-09-05T01:40:17.332Z,24.81
2022-09-05T01:40:27.256Z,24.86
2022-09-05T01:40:37.276Z,24.89
2022-09-05T01:40:48.322Z,24.91
2022-09-05T01:41:17.657Z,24.87
2022-09-05T01:41:18.484Z,24.84
2022-09-05T01:41:18.770Z,24.81
2022-09-05T01:41:27.702Z,24.86
2022-09-05T01:41:37.685Z,24.88
2022-09-05T01:41:47.811Z,24.92
2022-09-05T01:41:57.930Z,24.93
2022-09-05T01:42:08.054Z,24.93
2022-09-05T01:42:18.167Z,24.94
2022-09-05T01:42:28.285Z,24.96
2022-09-05T01:42:38.322Z,24.94
2022-09-05T01:42:48.441Z,24.95
2022-09-05T01:42:58.437Z,24.96
2022-09-05T01:43:08.684Z,24.98
2022-09-05T01:43:18.798Z,24.99
2022-09-05T01:43:28.797Z,25.00
2022-09-05T01:43:39.041Z,25.00
2022-09-05T01:43:49.166Z,25.01
2022-09-05T01:43:59.163Z,25.01
2022-09-05T01:44:09.411Z,25.02
2022-09-05T01:44:19.407Z,25.02
2022-09-05T01:44:29.523Z,25.03
2022-09-05T01:44:39.777Z,25.03
2022-09-05T01:44:49.910Z,25.04
2022-09-05T01:44:59.902Z,25.04
2022-09-05T01:45:10.147Z,25.04
2022-09-05T01:45:20.147Z,25.05
2022-09-05T01:45:39.384Z,25.06
2022-09-05T01:45:40.258Z,25.00
2022-09-05T01:45:50.699Z,25.02
2022-09-05T01:46:00.594Z,25.03
2022-09-05T01:46:11.619Z,25.04
2022-09-05T01:46:20.788Z,25.03
2022-09-05T01:46:30.783Z,25.03
2022-09-05T01:46:40.858Z,25.04
2022-09-05T01:46:50.835Z,25.04
2022-09-05T01:47:00.945Z,25.04
2022-09-05T01:47:11.074Z,25.03
2022-09-05T01:47:29.631Z,25.04
2022-09-05T01:47:31.453Z,25.00
2022-09-05T01:47:41.565Z,25.02
2022-09-05T01:47:51.597Z,25.03
2022-09-05T01:48:01.693Z,25.03
2022-09-05T01:48:11.808Z,25.04
2022-09-05T01:48:21.928Z,25.04
2022-09-05T01:48:31.978Z,25.04
2022-09-05T01:48:42.429Z,25.04
2022-09-05T01:48:52.172Z,24.98
2022-09-05T01:49:02.282Z,25.01
2022-09-05T01:49:12.357Z,24.99
2022-09-05T01:49:22.460Z,25.01
2022-09-05T01:49:32.597Z,25.02
2022-09-05T01:49:42.627Z,25.03
2022-09-05T01:49:52.626Z,25.03
2022-09-05T01:50:02.695Z,25.01
2022-09-05T01:50:12.810Z,25.01
2022-09-05T01:50:22.931Z,25.01
2022-09-05T01:50:33.045Z,25.02
2022-09-05T01:50:43.163Z,25.03
2022-09-05T01:50:53.284Z,25.03
2022-09-05T01:51:03.343Z,25.02
2022-09-05T01:51:28.188Z,25.01
2022-09-05T01:51:29.251Z,24.97
2022-09-05T01:51:33.635Z,24.94
2022-09-05T01:51:43.752Z,24.98
2022-09-05T01:51:53.868Z,25.00
2022-09-05T01:52:03.979Z,25.01
2022-09-05T01:52:14.010Z,25.01
2022-09-05T01:52:24.132Z,25.02
2022-09-05T01:52:34.198Z,25.03
2022-09-05T01:52:57.062Z,25.03
2022-09-05T01:53:03.502Z,24.97
2022-09-05T01:53:05.611Z,24.95
2022-09-05T01:53:14.466Z,24.96
2022-09-05T01:53:24.624Z,24.99
2022-09-05T01:53:34.590Z,25.00
2022-09-05T01:53:44.716Z,25.01
2022-09-05T01:53:54.718Z,25.01
2022-09-05T01:54:04.753Z,25.02
2022-09-05T01:54:19.845Z,25.02
2022-09-05T01:54:28.965Z,24.98
2022-09-05T01:54:35.018Z,24.94
2022-09-05T01:54:45.122Z,24.97
2022-09-05T01:54:55.121Z,25.00
2022-09-05T01:55:05.247Z,25.02
2022-09-05T01:55:15.288Z,25.02
2022-09-05T01:55:25.410Z,25.03
2022-09-05T01:55:37.847Z,25.03
2022-09-05T01:56:04.413Z,24.94
2022-09-05T01:56:05.803Z,24.98
2022-09-05T01:56:11.841Z,24.92
2022-09-05T01:56:15.754Z,24.90
2022-09-05T01:56:25.918Z,24.95
2022-09-05T01:56:35.962Z,24.98
2022-09-05T01:56:46.076Z,24.99
2022-09-05T01:56:56.193Z,25.00
2022-09-05T01:57:06.308Z,25.01
2022-09-05T01:57:19.595Z,25.02
2022-09-05T01:57:26.462Z,25.00
2022-09-05T01:57:36.577Z,25.01
2022-09-05T01:57:46.690Z,25.01
2022-09-05T01:57:56.817Z,25.03
2022-09-05T01:58:06.926Z,25.03
2022-09-05T01:58:17.046Z,25.04
2022-09-05T01:58:27.169Z,25.04
2022-09-05T01:58:37.187Z,25.04
2022-09-05T01:58:47.306Z,25.04
2022-09-05T01:58:57.435Z,25.05
2022-09-05T01:59:07.551Z,25.05
2022-09-05T01:59:17.673Z,25.06
2022-09-05T01:59:27.804Z,25.06
2022-09-05T01:59:37.918Z,25.07
2022-09-05T01:59:48.033Z,25.07
2022-09-05T01:59:58.165Z,25.07
2022-09-05T02:00:08.155Z,25.07
2022-09-05T02:00:18.284Z,25.08
2022-09-05T02:00:28.554Z,25.07
2022-09-05T02:00:38.653Z,25.08
2022-09-05T02:00:48.770Z,25.08
2022-09-05T02:01:25.465Z,25.00
2022-09-05T02:01:25.550Z,25.08
2022-09-05T02:01:30.039Z,25.04
2022-09-05T02:01:32.317Z,24.96
2022-09-05T02:01:39.195Z,24.96
2022-09-05T02:01:49.239Z,25.00
2022-09-05T02:01:59.309Z,25.01
2022-09-05T02:02:09.336Z,25.02
2022-09-05T02:02:19.503Z,25.03
2022-09-05T02:02:29.578Z,25.04
2022-09-05T02:02:39.664Z,25.05
2022-09-05T02:02:50.155Z,25.05
2022-09-05T02:02:59.996Z,25.05
2022-09-05T02:03:10.001Z,25.05
2022-09-05T02:03:20.382Z,25.07
2022-09-05T02:03:30.326Z,25.07
2022-09-05T02:03:40.326Z,25.07
2022-09-05T02:03:50.697Z,25.07
2022-09-05T02:04:00.821Z,25.07
2022-09-05T02:04:10.953Z,25.03
2022-09-05T02:04:21.072Z,25.04
2022-09-05T02:04:31.182Z,25.06
2022-09-05T02:04:41.299Z,25.06
2022-09-05T02:04:51.411Z,25.07
2022-09-05T02:05:01.419Z,25.08
2022-09-05T02:05:11.530Z,25.07
2022-09-05T02:05:47.610Z,25.02
2022-09-05T02:05:48.518Z,25.08
2022-09-05T02:05:48.778Z,24.99
2022-09-05T02:05:51.924Z,24.97
2022-09-05T02:06:01.894Z,25.01
2022-09-05T02:06:12.010Z,25.03
2022-09-05T02:06:22.133Z,25.04
2022-09-05T02:06:32.247Z,25.04
2022-09-05T02:06:44.012Z,25.05
2022-09-05T02:06:52.390Z,25.04
2022-09-05T02:07:19.392Z,25.05
2022-09-05T02:07:20.082Z,25.00
2022-09-05T02:07:30.849Z,24.97
2022-09-05T02:07:32.878Z,24.94
2022-09-05T02:07:42.996Z,24.99
2022-09-05T02:07:53.010Z,25.01
2022-09-05T02:08:03.003Z,25.01
2022-09-05T02:08:13.125Z,25.03
2022-09-05T02:08:23.117Z,25.04
2022-09-05T02:08:33.238Z,25.04
2022-09-05T02:08:43.354Z,25.05
2022-09-05T02:08:53.347Z,25.05
2022-09-05T02:09:03.464Z,25.06
2022-09-05T02:09:13.585Z,25.06
2022-09-05T02:09:23.695Z,25.07
2022-09-05T02:09:33.814Z,25.07
2022-09-05T02:09:43.928Z,25.08
2022-09-05T02:09:56.888Z,25.09
2022-09-05T02:10:07.261Z,25.04
2022-09-05T02:10:14.211Z,25.03
2022-09-05T02:10:24.322Z,25.04
2022-09-05T02:10:34.448Z,25.05
2022-09-05T02:10:44.577Z,25.06
2022-09-05T02:10:54.679Z,25.07
2022-09-05T02:11:04.800Z,25.07
2022-09-05T02:11:14.918Z,25.08